createdAt,value
2022-07-27T00:02:14.447Z,1017.75
2022-07-27T00:04:14.519Z,1017.76
2022-07-27T00:10:22.752Z,1017.77
2022-07-27T00:12:22.751Z,1017.80
2022-07-27T00:14:22.811Z,1017.77
2022-07-27T00:16:22.774Z,1017.77
2022-07-27T00:18:22.733Z,1017.73
2022-07-27T00:20:22.990Z,1017.72
2022-07-27T00:22:22.737Z,1017.75
2022-07-27T00:24:22.851Z,1017.78
2022-07-27T00:26:22.789Z,1017.78
2022-07-27T00:28:22.733Z,1017.75
2022-07-27T00:30:22.814Z,1017.73
2022-07-27T00:32:22.740Z,1017.66
2022-07-27T00:34:22.818Z,1017.66
2022-07-27T00:36:22.747Z,1017.66
2022-07-27T00:38:22.754Z,1017.69
2022-07-27T00:40:22.759Z,1017.69
2022-07-27T00:42:22.742Z,1017.67
2022-07-27T00:44:22.793Z,1017.68
2022-07-27T00:46:22.807Z,1017.68
2022-07-27T00:48:22.757Z,1017.59
2022-07-27T00:50:22.852Z,1017.48
2022-07-27T00:52:22.775Z,1017.50
2022-07-27T00:54:22.752Z,1017.50
2022-07-27T00:56:22.769Z,1017.51
2022-07-27T00:58:22.770Z,1017.52
2022-07-27T01:00:24.231Z,1017.49
2022-07-27T01:02:23.305Z,1017.44
2022-07-27T01:04:22.758Z,1017.44
2022-07-27T01:06:23.321Z,1017.41
2022-07-27T01:08:22.798Z,1017.41
2022-07-27T01:10:22.788Z,1017.44
2022-07-27T01:12:22.765Z,1017.44
2022-07-27T01:14:22.796Z,1017.44
2022-07-27T01:16:22.897Z,1017.42
2022-07-27T01:18:22.780Z,1017.49
2022-07-27T01:20:22.865Z,1017.49
2022-07-27T01:22:22.774Z,1017.49
2022-07-27T01:24:22.786Z,1017.44
2022-07-27T01:26:22.811Z,1017.42
2022-07-27T01:28:22.773Z,1017.44
2022-07-27T01:30:22.848Z,1017.43
2022-07-27T01:32:22.792Z,1017.43
2022-07-27T01:34:22.801Z,1017.36
2022-07-27T01:36:52.898Z,1017.34
2022-07-27T01:38:52.805Z,1017.34
2022-07-27T01:40:53.131Z,1017.33
2022-07-27T01:42:52.800Z,1017.31
2022-07-27T01:44:52.817Z,1017.30
2022-07-27T01:46:52.882Z,1017.30
2022-07-27T01:48:52.835Z,1017.26
2022-07-27T01:50:52.806Z,1017.17
2022-07-27T01:52:52.816Z,1017.15
2022-07-27T01:54:52.826Z,1017.15
2022-07-27T01:56:52.860Z,1017.18
2022-07-27T01:58:52.801Z,1017.18
2022-07-27T02:00:52.839Z,1017.18
2022-07-27T02:02:52.815Z,1016.99
2022-07-27T02:04:52.913Z,1016.99
2022-07-27T02:06:52.824Z,1017.02
2022-07-27T02:08:52.797Z,1016.99
2022-07-27T02:10:52.830Z,1016.98
2022-07-27T02:12:52.817Z,1016.95
2022-07-27T02:14:52.810Z,1016.95
2022-07-27T02:16:52.826Z,1016.93
2022-07-27T02:18:52.828Z,1016.90
2022-07-27T02:20:52.837Z,1016.88
2022-07-27T02:22:52.817Z,1016.88
2022-07-27T02:24:52.822Z,1016.88
2022-07-27T02:26:52.867Z,1016.90
2022-07-27T02:28:52.837Z,1016.94
2022-07-27T02:30:52.851Z,1016.90
2022-07-27T02:32:52.891Z,1016.90
2022-07-27T02:34:52.841Z,1016.90
2022-07-27T02:36:52.828Z,1016.96
2022-07-27T02:38:52.836Z,1016.97
2022-07-27T02:40:52.966Z,1016.97
2022-07-27T02:42:52.837Z,1016.97
2022-07-27T02:44:52.854Z,1016.98
2022-07-27T02:46:52.856Z,1016.96
2022-07-27T02:48:52.983Z,1016.92
2022-07-27T02:50:52.926Z,1016.92
2022-07-27T02:52:52.839Z,1016.92
2022-07-27T02:54:52.838Z,1016.96
2022-07-27T02:56:53.077Z,1017.02
2022-07-27T02:58:52.835Z,1017.02
2022-07-27T03:00:57.885Z,1017.02
2022-07-27T03:02:52.875Z,1017.01
2022-07-27T03:04:52.964Z,1017.01
2022-07-27T03:06:52.946Z,1017.09
2022-07-27T03:08:52.863Z,1017.11
2022-07-27T03:10:52.887Z,1017.11
2022-07-27T03:12:52.872Z,1017.13
2022-07-27T03:14:52.872Z,1017.07
2022-07-27T03:16:52.867Z,1017.06
2022-07-27T03:18:52.867Z,1017.06
2022-07-27T03:20:52.882Z,1017.08
2022-07-27T03:22:52.925Z,1017.08
2022-07-27T03:24:52.861Z,1017.12
2022-07-27T03:26:52.882Z,1017.11
2022-07-27T03:28:52.856Z,1017.11
2022-07-27T03:30:53.190Z,1017.09
2022-07-27T03:32:52.878Z,1017.10
2022-07-27T03:35:22.877Z,1017.12
2022-07-27T03:37:22.888Z,1017.13
2022-07-27T03:39:22.875Z,1017.13
2022-07-27T03:41:22.988Z,1017.16
2022-07-27T03:43:22.889Z,1017.16
2022-07-27T03:45:22.895Z,1017.11
2022-07-27T03:47:22.880Z,1017.11
2022-07-27T03:49:22.992Z,1017.11
2022-07-27T03:51:22.926Z,1017.13
2022-07-27T03:53:22.887Z,1017.13
2022-07-27T03:55:22.901Z,1017.06
2022-07-27T03:57:22.902Z,1017.06
2022-07-27T03:59:22.893Z,1017.07
2022-07-27T04:01:23.000Z,1017.06
2022-07-27T04:03:22.897Z,1017.06
2022-07-27T04:05:22.923Z,1017.03
2022-07-27T04:07:22.932Z,1017.03
2022-07-27T04:09:22.902Z,1017.01
2022-07-27T04:11:23.010Z,1017.04
2022-07-27T04:13:22.933Z,1017.04
2022-07-27T04:15:22.946Z,1017.05
2022-07-27T04:17:54.830Z,1017.05
2022-07-27T04:19:22.918Z,1017.05
2022-07-27T04:21:23.106Z,1017.04
2022-07-27T04:23:22.926Z,1017.02
2022-07-27T04:25:22.926Z,1017.02
2022-07-27T04:27:22.931Z,1017.07
2022-07-27T04:29:23.481Z,1017.10
2022-07-27T04:31:23.110Z,1017.14
2022-07-27T04:33:22.963Z,1017.17
2022-07-27T04:35:26.497Z,1017.17
2022-07-27T04:37:22.948Z,1017.12
2022-07-27T04:39:22.980Z,1017.11
2022-07-27T04:41:22.985Z,1017.13
2022-07-27T04:43:23.043Z,1017.13
2022-07-27T04:45:23.015Z,1017.13
2022-07-27T04:47:22.968Z,1017.17
2022-07-27T04:49:23.103Z,1017.23
2022-07-27T04:51:23.997Z,1017.23
2022-07-27T04:53:23.021Z,1017.23
2022-07-27T04:55:22.990Z,1017.33
2022-07-27T04:57:22.940Z,1017.31
2022-07-27T04:59:22.925Z,1017.27
2022-07-27T05:01:23.214Z,1017.27
2022-07-27T05:03:22.963Z,1017.27
2022-07-27T05:05:22.969Z,1017.32
2022-07-27T05:07:22.958Z,1017.31
2022-07-27T05:09:22.953Z,1017.36
2022-07-27T05:11:23.019Z,1017.40
2022-07-27T05:13:23.048Z,1017.40
2022-07-27T05:15:23.058Z,1017.43
2022-07-27T05:17:22.969Z,1017.46
2022-07-27T05:19:22.962Z,1017.53
2022-07-27T05:21:22.965Z,1017.53
2022-07-27T05:23:23.020Z,1017.54
2022-07-27T05:25:22.997Z,1017.54
2022-07-27T05:27:23.035Z,1017.67
2022-07-27T05:29:23.057Z,1017.72
2022-07-27T05:31:53.109Z,1017.82
2022-07-27T05:33:57.914Z,1017.82
2022-07-27T05:35:53.112Z,1017.82
2022-07-27T05:37:52.988Z,1017.80
2022-07-27T05:39:52.980Z,1017.83
2022-07-27T05:41:53.024Z,1017.85
2022-07-27T05:43:53.086Z,1017.89
2022-07-27T05:45:53.109Z,1017.89
2022-07-27T05:47:53.052Z,1017.95
2022-07-27T05:49:53.012Z,1017.94
2022-07-27T05:51:53.011Z,1017.89
2022-07-27T05:53:52.981Z,1017.89
2022-07-27T05:55:58.746Z,1017.89
2022-07-27T05:57:52.989Z,1017.95
2022-07-27T05:59:53.092Z,1018.00
2022-07-27T06:01:52.982Z,1017.98
2022-07-27T06:03:53.042Z,1017.98
2022-07-27T06:05:53.095Z,1017.98
2022-07-27T06:07:52.979Z,1018.00
2022-07-27T06:09:52.993Z,1018.02
2022-07-27T06:11:53.037Z,1018.02
2022-07-27T06:13:53.062Z,1018.02
2022-07-27T06:15:53.014Z,1018.02
2022-07-27T06:17:53.016Z,1018.05
2022-07-27T06:19:53.014Z,1018.07
2022-07-27T06:21:53.990Z,1018.07
2022-07-27T06:23:52.993Z,1018.00
2022-07-27T06:25:53.011Z,1018.01
2022-07-27T06:27:53.009Z,1018.00
2022-07-27T06:29:53.000Z,1017.99
2022-07-27T06:33:52.999Z,1018.02
2022-07-27T06:35:58.755Z,1018.00
2022-07-27T06:37:53.185Z,1017.99
2022-07-27T06:39:53.047Z,1017.96
2022-07-27T06:41:57.711Z,1017.96
2022-07-27T06:43:53.086Z,1017.97
2022-07-27T06:45:53.094Z,1017.97
2022-07-27T06:47:53.023Z,1017.97
2022-07-27T06:49:53.111Z,1017.95
2022-07-27T06:51:53.128Z,1017.95
2022-07-27T06:53:53.144Z,1017.93
2022-07-27T06:55:53.186Z,1017.95
2022-07-27T06:57:53.110Z,1017.97
2022-07-27T06:59:53.098Z,1017.97
2022-07-27T07:01:53.042Z,1017.96
2022-07-27T07:03:53.178Z,1017.99
2022-07-27T07:05:53.111Z,1018.01
2022-07-27T07:07:53.030Z,1018.00
2022-07-27T07:12:02.533Z,1017.97
2022-07-27T07:14:02.487Z,1017.99
2022-07-27T07:16:02.558Z,1018.00
2022-07-27T07:18:02.494Z,1018.05
2022-07-27T07:20:02.519Z,1018.05
2022-07-27T07:22:02.497Z,1018.05
2022-07-27T07:24:02.582Z,1018.05
2022-07-27T07:26:02.502Z,1018.05
2022-07-27T07:28:02.619Z,1018.05
2022-07-27T07:30:02.661Z,1018.00
2022-07-27T07:32:02.824Z,1017.99
2022-07-27T07:34:02.618Z,1017.98
2022-07-27T07:36:12.811Z,1017.97
2022-07-27T07:38:02.530Z,1017.97
2022-07-27T07:40:18.738Z,1017.93
2022-07-27T07:42:02.518Z,1017.94
2022-07-27T07:44:02.537Z,1017.95
2022-07-27T07:46:02.528Z,1017.95
2022-07-27T07:48:02.553Z,1017.95
2022-07-27T07:50:02.629Z,1017.98
2022-07-27T07:52:02.609Z,1017.98
2022-07-27T07:54:02.508Z,1017.96
2022-07-27T07:56:02.540Z,1017.96
2022-07-27T07:58:02.630Z,1018.02
2022-07-27T08:00:02.572Z,1018.00
2022-07-27T08:02:02.571Z,1017.97
2022-07-27T08:04:02.563Z,1017.97
2022-07-27T08:06:02.545Z,1017.97
2022-07-27T08:08:02.533Z,1017.97
2022-07-27T08:10:02.524Z,1017.99
2022-07-27T08:12:02.558Z,1018.00
2022-07-27T08:14:32.522Z,1018.00
2022-07-27T08:16:32.637Z,1018.00
2022-07-27T08:18:32.597Z,1018.00
2022-07-27T08:20:32.853Z,1018.01
2022-07-27T08:22:32.533Z,1018.00
2022-07-27T08:24:32.668Z,1018.00
2022-07-27T08:26:32.611Z,1018.00
2022-07-27T08:28:37.072Z,1018.00
2022-07-27T08:30:33.702Z,1017.99
2022-07-27T08:32:32.911Z,1018.06
2022-07-27T08:34:32.575Z,1018.06
2022-07-27T08:36:32.614Z,1018.03
2022-07-27T08:38:32.597Z,1018.05
2022-07-27T08:40:42.576Z,1018.03
2022-07-27T08:42:32.573Z,1018.02
2022-07-27T08:44:32.682Z,1018.02
2022-07-27T08:46:32.720Z,1018.06
2022-07-27T08:48:32.644Z,1018.06
2022-07-27T08:50:32.624Z,1018.05
2022-07-27T08:52:32.607Z,1018.09
2022-07-27T08:54:32.681Z,1018.09
2022-07-27T08:56:32.668Z,1018.07
2022-07-27T08:58:33.030Z,1018.05
2022-07-27T09:00:33.722Z,1018.09
2022-07-27T09:02:32.705Z,1018.09
2022-07-27T09:04:33.219Z,1018.09
2022-07-27T09:06:32.906Z,1018.10
2022-07-27T09:08:32.684Z,1018.05
2022-07-27T09:10:38.426Z,1018.03
2022-07-27T09:12:32.749Z,1018.03
2022-07-27T09:14:32.846Z,1018.01
2022-07-27T09:17:28.428Z,1018.03
2022-07-27T09:18:33.021Z,1017.99
2022-07-27T09:20:32.744Z,1017.99
2022-07-27T09:22:32.646Z,1017.99
2022-07-27T09:24:46.747Z,1017.95
2022-07-27T09:26:34.184Z,1017.96
2022-07-27T09:28:32.686Z,1017.96
2022-07-27T09:30:32.856Z,1017.96
2022-07-27T09:32:32.726Z,1017.94
2022-07-27T09:34:32.641Z,1017.94
2022-07-27T09:36:32.693Z,1017.92
2022-07-27T09:38:32.717Z,1017.94
2022-07-27T09:40:32.759Z,1017.94
2022-07-27T09:43:07.426Z,1017.97
2022-07-27T09:44:42.389Z,1017.96
2022-07-27T09:46:32.831Z,1018.00
2022-07-27T09:48:32.831Z,1017.97
2022-07-27T09:50:35.773Z,1017.97
2022-07-27T09:52:32.699Z,1017.98
2022-07-27T09:54:32.684Z,1017.95
2022-07-27T09:56:32.743Z,1017.94
2022-07-27T09:58:32.725Z,1017.94
2022-07-27T10:00:32.764Z,1017.94
2022-07-27T10:02:34.721Z,1017.94
2022-07-27T10:04:32.833Z,1017.93
2022-07-27T10:08:33.789Z,1017.96
2022-07-27T10:10:32.743Z,1017.96
2022-07-27T10:12:32.907Z,1018.03
2022-07-27T10:14:32.734Z,1018.06
2022-07-27T10:16:32.827Z,1018.07
2022-07-27T10:18:32.769Z,1018.07
2022-07-27T10:21:02.806Z,1018.09
2022-07-27T10:23:02.727Z,1018.09
2022-07-27T10:25:02.703Z,1018.11
2022-07-27T10:27:02.855Z,1018.15
2022-07-27T10:29:03.055Z,1018.16
2022-07-27T10:31:02.767Z,1018.16
2022-07-27T10:33:02.741Z,1018.16
2022-07-27T10:35:02.922Z,1018.19
2022-07-27T10:37:05.795Z,1018.19
2022-07-27T10:39:02.970Z,1018.16
2022-07-27T10:41:02.687Z,1018.16
2022-07-27T10:43:02.711Z,1018.12
2022-07-27T10:45:02.700Z,1018.11
2022-07-27T10:47:02.716Z,1018.07
2022-07-27T10:49:02.717Z,1018.07
2022-07-27T10:51:02.693Z,1018.07
2022-07-27T10:53:02.683Z,1018.10
2022-07-27T10:55:02.741Z,1018.11
2022-07-27T10:57:02.723Z,1018.05
2022-07-27T10:59:02.788Z,1018.05
2022-07-27T11:01:02.934Z,1018.05
2022-07-27T11:03:02.752Z,1018.02
2022-07-27T11:05:02.764Z,1018.03
2022-07-27T11:07:26.687Z,1017.99
2022-07-27T11:11:02.817Z,1017.98
2022-07-27T11:13:05.594Z,1017.99
2022-07-27T11:15:02.726Z,1018.02
2022-07-27T11:17:49.463Z,1017.95
2022-07-27T11:19:02.793Z,1017.95
2022-07-27T11:21:04.678Z,1017.93
2022-07-27T11:23:48.792Z,1017.94
2022-07-27T11:25:02.802Z,1017.91
2022-07-27T11:27:02.860Z,1017.91
2022-07-27T11:29:02.855Z,1017.91
2022-07-27T11:31:03.800Z,1017.91
2022-07-27T11:33:02.748Z,1017.91
2022-07-27T11:35:06.468Z,1017.96
2022-07-27T11:37:03.342Z,1017.96
2022-07-27T11:39:03.028Z,1017.96
2022-07-27T11:41:15.358Z,1017.97
2022-07-27T11:43:04.444Z,1017.94
2022-07-27T11:45:02.774Z,1017.90
2022-07-27T11:47:03.376Z,1017.90
2022-07-27T11:49:07.261Z,1017.91
2022-07-27T11:51:03.307Z,1017.91
2022-07-27T11:53:03.142Z,1017.93
2022-07-27T11:55:03.353Z,1017.87
2022-07-27T11:57:02.975Z,1017.87
2022-07-27T11:59:02.962Z,1017.90
2022-07-27T12:01:03.811Z,1017.92
2022-07-27T12:03:03.223Z,1017.94
2022-07-27T12:05:03.468Z,1017.94
2022-07-27T12:07:06.036Z,1017.95
2022-07-27T12:09:03.179Z,1017.93
2022-07-27T12:11:03.504Z,1017.93
2022-07-27T12:13:03.187Z,1017.89
2022-07-27T12:15:16.739Z,1017.89
2022-07-27T12:17:03.197Z,1017.85
2022-07-27T12:19:03.469Z,1017.80
2022-07-27T12:21:06.027Z,1017.77
2022-07-27T12:25:33.197Z,1017.75
2022-07-27T12:27:33.211Z,1017.78
2022-07-27T12:29:33.086Z,1017.77
2022-07-27T12:31:35.942Z,1017.79
2022-07-27T12:35:37.226Z,1017.84
2022-07-27T12:37:32.979Z,1017.87
2022-07-27T12:39:33.576Z,1017.95
2022-07-27T12:41:33.600Z,1017.95
2022-07-27T12:43:34.747Z,1017.95
2022-07-27T12:45:36.412Z,1017.87
2022-07-27T12:47:35.137Z,1017.81
2022-07-27T12:49:33.419Z,1017.81
2022-07-27T12:51:33.507Z,1017.81
2022-07-27T12:53:33.162Z,1017.81
2022-07-27T12:55:33.001Z,1017.78
2022-07-27T12:57:53.642Z,1017.81
2022-07-27T12:59:33.360Z,1017.78
2022-07-27T13:01:33.352Z,1017.78
2022-07-27T13:03:33.796Z,1017.77
2022-07-27T13:05:33.406Z,1017.76
2022-07-27T13:07:33.083Z,1017.75
2022-07-27T13:10:01.754Z,1017.80
2022-07-27T13:11:33.324Z,1017.80
2022-07-27T13:13:32.856Z,1017.76
2022-07-27T13:15:33.034Z,1017.67
2022-07-27T13:17:33.103Z,1017.61
2022-07-27T13:19:33.252Z,1017.57
2022-07-27T13:21:33.642Z,1017.57
2022-07-27T13:23:32.894Z,1017.54
2022-07-27T13:25:33.300Z,1017.56
2022-07-27T13:27:32.906Z,1017.55
2022-07-27T13:29:32.887Z,1017.55
2022-07-27T13:31:32.933Z,1017.63
2022-07-27T13:33:32.862Z,1017.63
2022-07-27T13:35:32.931Z,1017.54
2022-07-27T13:37:32.917Z,1017.51
2022-07-27T13:39:34.313Z,1017.51
2022-07-27T13:41:32.879Z,1017.51
2022-07-27T13:43:32.927Z,1017.51
2022-07-27T13:45:42.256Z,1017.51
2022-07-27T13:47:32.835Z,1017.53
2022-07-27T13:49:32.961Z,1017.53
2022-07-27T13:51:32.923Z,1017.46
2022-07-27T13:53:32.945Z,1017.46
2022-07-27T13:55:33.130Z,1017.44
2022-07-27T13:57:33.035Z,1017.39
2022-07-27T13:59:32.896Z,1017.39
2022-07-27T14:01:32.976Z,1017.43
2022-07-27T14:03:32.874Z,1017.46
2022-07-27T14:05:33.606Z,1017.48
2022-07-27T14:07:32.886Z,1017.48
2022-07-27T14:09:32.870Z,1017.44
2022-07-27T14:13:32.903Z,1017.42
2022-07-27T14:17:32.865Z,1017.47
2022-07-27T14:21:42.316Z,1017.38
2022-07-27T14:23:42.386Z,1017.38
2022-07-27T14:25:42.374Z,1017.28
2022-07-27T14:27:42.368Z,1017.28
2022-07-27T14:29:42.365Z,1017.28
2022-07-27T14:31:42.487Z,1017.28
2022-07-27T14:33:42.388Z,1017.28
2022-07-27T14:35:42.361Z,1017.28
2022-07-27T14:37:42.461Z,1017.27
2022-07-27T14:39:42.336Z,1017.25
2022-07-27T14:41:44.381Z,1017.26
2022-07-27T14:43:42.380Z,1017.22
2022-07-27T14:45:45.172Z,1017.22
2022-07-27T14:47:42.425Z,1017.20
2022-07-27T14:49:42.464Z,1017.23
2022-07-27T14:51:42.366Z,1017.23
2022-07-27T14:53:42.502Z,1017.23
2022-07-27T14:55:42.412Z,1017.23
2022-07-27T14:57:42.381Z,1017.18
2022-07-27T14:59:42.374Z,1017.18
2022-07-27T15:01:42.743Z,1017.12
2022-07-27T15:03:42.401Z,1017.12
2022-07-27T15:06:12.342Z,1017.16
2022-07-27T15:08:12.440Z,1017.16
2022-07-27T15:10:12.363Z,1017.16
2022-07-27T15:12:12.352Z,1017.11
2022-07-27T15:14:12.379Z,1017.17
2022-07-27T15:16:12.479Z,1017.19
2022-07-27T15:18:12.334Z,1017.19
2022-07-27T15:20:12.382Z,1017.18
2022-07-27T15:22:12.387Z,1017.28
2022-07-27T15:24:12.456Z,1017.29
2022-07-27T15:26:12.401Z,1017.29
2022-07-27T15:30:12.382Z,1017.30
2022-07-27T15:32:14.361Z,1017.28
2022-07-27T15:34:12.440Z,1017.28
2022-07-27T15:36:31.590Z,1017.28
2022-07-27T15:38:12.462Z,1017.24
2022-07-27T15:40:12.393Z,1017.22
2022-07-27T15:42:12.398Z,1017.23
2022-07-27T15:44:12.429Z,1017.25
2022-07-27T15:46:12.522Z,1017.25
2022-07-27T15:48:12.362Z,1017.22
2022-07-27T15:50:12.624Z,1017.23
2022-07-27T15:52:12.458Z,1017.26
2022-07-27T15:54:12.451Z,1017.25
2022-07-27T15:56:12.426Z,1017.25
2022-07-27T15:58:12.390Z,1017.27
2022-07-27T16:00:12.448Z,1017.26
2022-07-27T16:02:13.432Z,1017.21
2022-07-27T16:04:12.504Z,1017.21
2022-07-27T16:06:12.473Z,1017.18
2022-07-27T16:08:12.469Z,1017.20
2022-07-27T16:10:12.502Z,1017.19
2022-07-27T16:12:12.614Z,1017.16
2022-07-27T16:14:12.448Z,1017.16
2022-07-27T16:16:12.500Z,1017.16
2022-07-27T16:18:13.474Z,1017.13
2022-07-27T16:20:12.510Z,1017.15
2022-07-27T16:22:12.462Z,1017.14
2022-07-27T16:24:12.474Z,1017.14
2022-07-27T16:26:12.702Z,1017.14
2022-07-27T16:28:12.505Z,1017.10
2022-07-27T16:30:12.451Z,1016.99
2022-07-27T16:32:12.439Z,1016.99
2022-07-27T16:34:12.470Z,1016.99
2022-07-27T16:36:12.578Z,1017.02
2022-07-27T16:38:13.563Z,1017.02
2022-07-27T16:40:12.528Z,1017.02
2022-07-27T16:42:12.532Z,1017.02
2022-07-27T16:44:12.538Z,1016.93
2022-07-27T16:46:12.486Z,1016.95
2022-07-27T16:48:12.459Z,1016.98
2022-07-27T16:50:12.511Z,1017.02
2022-07-27T16:52:12.467Z,1017.02
2022-07-27T16:54:12.570Z,1016.99
2022-07-27T16:56:12.471Z,1016.99
2022-07-27T16:58:12.528Z,1016.99
2022-07-27T17:00:12.481Z,1016.99
2022-07-27T17:02:12.516Z,1017.06
2022-07-27T17:04:12.571Z,1017.07
2022-07-27T17:06:12.510Z,1017.00
2022-07-27T17:08:12.513Z,1016.98
2022-07-27T17:10:42.530Z,1016.98
2022-07-27T17:12:42.621Z,1016.96
2022-07-27T17:14:42.540Z,1016.96
2022-07-27T17:16:42.496Z,1016.96
2022-07-27T17:18:42.468Z,1016.94
2022-07-27T17:20:42.589Z,1016.94
2022-07-27T17:22:42.494Z,1017.01
2022-07-27T17:24:42.515Z,1016.99
2022-07-27T17:26:42.573Z,1017.03
2022-07-27T17:28:42.562Z,1017.04
2022-07-27T17:30:42.592Z,1017.04
2022-07-27T17:32:42.479Z,1017.09
2022-07-27T17:34:42.493Z,1017.14
2022-07-27T17:36:42.529Z,1017.14
2022-07-27T17:38:42.545Z,1017.14
2022-07-27T17:40:42.580Z,1017.13
2022-07-27T17:42:42.540Z,1017.15
2022-07-27T17:44:42.560Z,1017.15
2022-07-27T17:46:42.591Z,1017.12
2022-07-27T17:48:42.515Z,1017.12
2022-07-27T17:50:42.847Z,1017.12
2022-07-27T17:52:42.547Z,1017.13
2022-07-27T17:54:42.534Z,1017.17
2022-07-27T17:56:42.597Z,1017.13
2022-07-27T17:58:42.574Z,1017.13
2022-07-27T18:00:42.812Z,1017.17
2022-07-27T18:02:42.600Z,1017.17
2022-07-27T18:04:42.567Z,1017.22
2022-07-27T18:06:42.542Z,1017.22
2022-07-27T18:08:42.550Z,1017.22
2022-07-27T18:10:42.743Z,1017.21
2022-07-27T18:12:42.575Z,1017.23
2022-07-27T18:14:42.565Z,1017.24
2022-07-27T18:16:42.639Z,1017.24
2022-07-27T18:18:42.646Z,1017.24
2022-07-27T18:20:42.576Z,1017.26
2022-07-27T18:22:42.607Z,1017.30
2022-07-27T18:24:42.569Z,1017.34
2022-07-27T18:26:42.730Z,1017.34
2022-07-27T18:28:42.614Z,1017.35
2022-07-27T18:30:42.652Z,1017.42
2022-07-27T18:32:42.643Z,1017.42
2022-07-27T18:34:42.533Z,1017.42
2022-07-27T18:36:42.702Z,1017.49
2022-07-27T18:38:42.549Z,1017.49
2022-07-27T18:40:42.600Z,1017.59
2022-07-27T18:42:42.604Z,1017.59
2022-07-27T18:44:42.589Z,1017.59
2022-07-27T18:46:42.566Z,1017.61
2022-07-27T18:48:42.657Z,1017.61
2022-07-27T18:50:42.573Z,1017.57
2022-07-27T18:52:42.560Z,1017.60
2022-07-27T18:54:42.580Z,1017.60
2022-07-27T18:56:42.631Z,1017.59
2022-07-27T18:58:42.592Z,1017.59
2022-07-27T19:00:42.708Z,1017.64
2022-07-27T19:02:42.703Z,1017.64
2022-07-27T19:04:42.638Z,1017.65
2022-07-27T19:06:42.798Z,1017.67
2022-07-27T19:08:42.591Z,1017.73
2022-07-27T19:10:42.686Z,1017.77
2022-07-27T19:13:12.596Z,1017.80
2022-07-27T19:15:12.618Z,1017.84
2022-07-27T19:17:14.906Z,1017.84
2022-07-27T19:19:16.848Z,1017.83
2022-07-27T19:21:12.633Z,1017.81
2022-07-27T19:23:12.565Z,1017.82
2022-07-27T19:25:12.619Z,1017.86
2022-07-27T19:27:12.617Z,1017.86
2022-07-27T19:29:12.871Z,1017.86
2022-07-27T19:31:22.817Z,1017.89
2022-07-27T19:33:12.669Z,1017.85
2022-07-27T19:35:12.576Z,1017.85
2022-07-27T19:37:12.662Z,1017.87
2022-07-27T19:39:12.973Z,1017.87
2022-07-27T19:41:12.646Z,1018.05
2022-07-27T19:43:12.618Z,1018.07
2022-07-27T19:45:12.651Z,1018.07
2022-07-27T19:47:12.638Z,1018.08
2022-07-27T19:49:12.969Z,1018.10
2022-07-27T19:51:12.598Z,1018.07
2022-07-27T19:53:12.575Z,1018.07
2022-07-27T19:55:12.627Z,1018.07
2022-07-27T19:57:12.605Z,1018.04
2022-07-27T19:59:12.896Z,1018.04
2022-07-27T20:01:13.558Z,1018.12
2022-07-27T20:03:12.661Z,1018.12
2022-07-27T20:05:12.589Z,1018.13
2022-07-27T20:07:12.707Z,1018.19
2022-07-27T20:09:12.986Z,1018.19
2022-07-27T20:11:12.684Z,1018.19
2022-07-27T20:13:12.645Z,1018.19
2022-07-27T20:15:12.647Z,1018.21
2022-07-27T20:17:12.815Z,1018.18
2022-07-27T20:19:12.845Z,1018.18
2022-07-27T20:21:22.681Z,1018.20
2022-07-27T20:23:12.611Z,1018.20
2022-07-27T20:25:12.618Z,1018.20
2022-07-27T20:27:12.666Z,1018.19
2022-07-27T20:29:13.006Z,1018.15
2022-07-27T20:31:12.774Z,1018.16
2022-07-27T20:33:12.679Z,1018.16
2022-07-27T20:35:12.692Z,1018.18
2022-07-27T20:37:12.637Z,1018.25
2022-07-27T20:39:17.191Z,1018.25
2022-07-27T20:41:12.661Z,1018.25
2022-07-27T20:43:12.650Z,1018.24
2022-07-27T20:45:12.637Z,1018.21
2022-07-27T20:47:12.686Z,1018.23
2022-07-27T20:49:12.955Z,1018.24
2022-07-27T20:51:12.632Z,1018.24
2022-07-27T20:53:12.738Z,1018.25
2022-07-27T20:55:12.668Z,1018.25
2022-07-27T20:57:12.640Z,1018.27
2022-07-27T20:59:16.763Z,1018.27
2022-07-27T21:01:12.799Z,1018.27
2022-07-27T21:03:13.740Z,1018.18
2022-07-27T21:05:12.719Z,1018.21
2022-07-27T21:07:12.750Z,1018.22
2022-07-27T21:09:13.059Z,1018.22
2022-07-27T21:11:42.677Z,1018.25
2022-07-27T21:13:42.679Z,1018.27
2022-07-27T21:15:44.681Z,1018.23
2022-07-27T21:17:44.652Z,1018.24
2022-07-27T21:19:42.637Z,1018.24
2022-07-27T21:23:34.497Z,1018.25
2022-07-27T21:25:34.491Z,1018.25
2022-07-27T21:27:35.512Z,1018.24
2022-07-27T21:29:34.486Z,1018.24
2022-07-27T21:31:34.492Z,1018.24
2022-07-27T21:33:39.402Z,1018.25
2022-07-27T21:35:34.559Z,1018.26
2022-07-27T21:37:34.538Z,1018.26
2022-07-27T21:39:34.468Z,1018.24
2022-07-27T21:41:34.481Z,1018.24
2022-07-27T21:43:34.505Z,1018.17
2022-07-27T21:45:34.507Z,1018.17
2022-07-27T21:47:34.495Z,1018.17
2022-07-27T21:49:34.887Z,1018.20
2022-07-27T21:51:34.498Z,1018.18
2022-07-27T21:53:34.577Z,1018.16
2022-07-27T21:55:34.502Z,1018.16
2022-07-27T21:57:34.498Z,1018.16
2022-07-27T21:59:34.506Z,1018.21
2022-07-27T22:01:34.592Z,1018.19
2022-07-27T22:03:34.564Z,1018.19
2022-07-27T22:05:34.539Z,1018.19
2022-07-27T22:07:34.550Z,1018.23
2022-07-27T22:09:34.492Z,1018.21
2022-07-27T22:11:34.513Z,1018.23
2022-07-27T22:13:34.508Z,1018.21
2022-07-27T22:15:34.558Z,1018.21
2022-07-27T22:17:34.496Z,1018.16
2022-07-27T22:19:34.511Z,1018.18
2022-07-27T22:21:34.530Z,1018.18
2022-07-27T22:23:34.520Z,1018.20
2022-07-27T22:25:34.544Z,1018.20
2022-07-27T22:27:34.600Z,1018.15
2022-07-27T22:29:34.523Z,1018.14
2022-07-27T22:31:34.627Z,1018.17
2022-07-27T22:33:34.521Z,1018.18
2022-07-27T22:35:34.601Z,1018.18
2022-07-27T22:37:34.577Z,1018.25
2022-07-27T22:40:04.539Z,1018.22
2022-07-27T22:42:04.524Z,1018.26
2022-07-27T22:44:04.526Z,1018.21
2022-07-27T22:46:04.799Z,1018.18
2022-07-27T22:48:04.583Z,1018.18
2022-07-27T22:50:04.552Z,1018.18
2022-07-27T22:52:04.526Z,1018.16
2022-07-27T22:54:04.637Z,1018.14
2022-07-27T22:56:04.544Z,1018.15
2022-07-27T22:58:04.549Z,1018.15
2022-07-27T23:00:04.542Z,1018.23
2022-07-27T23:02:04.621Z,1018.23
2022-07-27T23:04:04.543Z,1018.21
2022-07-27T23:06:05.655Z,1018.21
2022-07-27T23:08:04.556Z,1018.18
2022-07-27T23:10:04.580Z,1018.20
2022-07-27T23:12:04.665Z,1018.16
2022-07-27T23:14:04.538Z,1018.22
2022-07-27T23:16:10.307Z,1018.22
2022-07-27T23:18:04.538Z,1018.18
2022-07-27T23:20:04.590Z,1018.14
2022-07-27T23:22:04.855Z,1018.13
2022-07-27T23:24:05.087Z,1018.13
2022-07-27T23:26:04.557Z,1018.13
2022-07-27T23:28:04.565Z,1018.16
2022-07-27T23:30:04.588Z,1018.11
2022-07-27T23:32:04.570Z,1018.08
2022-07-27T23:34:04.566Z,1018.09
2022-07-27T23:36:04.630Z,1018.09
2022-07-27T23:38:04.585Z,1018.07
2022-07-27T23:40:04.650Z,1018.05
2022-07-27T23:42:04.648Z,1018.05
2022-07-27T23:44:04.561Z,1018.05
2022-07-27T23:46:04.604Z,1018.05
2022-07-27T23:48:04.591Z,1018.03
2022-07-27T23:50:04.692Z,1017.99
2022-07-27T23:52:04.590Z,1017.98
2022-07-27T23:54:04.582Z,1017.98
2022-07-27T23:56:04.617Z,1017.94
2022-07-27T23:58:04.571Z,1017.95
